Time;durP1;ratioP1;P1;durP2;ratioP2;P2;SDS_P1;SDS_P2;PMS_P1;PMS_P2;Temp;Humidity;BMP_temperature;BMP_pressure;BME280_temperature;BME280_humidity;BME280_pressure;Samples;Min_cycle;Max_cycle;Signal;HPM_P1;HPM_P2
2023/05/15 00:01:56;;;;;;;5.85;3.15;;;;;;;12.55;100.00;100358.59;5134981;28;20045;-72
2023/05/15 00:04:27;;;;;;;6.93;3.55;;;;;;;12.41;100.00;100358.38;5137267;28;20054;-74
2023/05/15 00:06:57;;;;;;;6.78;3.20;;;;;;;12.29;100.00;100356.34;5130461;28;20038;-73
2023/05/15 00:09:27;;;;;;;5.68;3.53;;;;;;;11.97;100.00;100355.16;5128613;28;20023;-73
2023/05/15 00:11:58;;;;;;;6.65;3.65;;;;;;;12.11;100.00;100363.25;5129784;28;20031;-73
2023/05/15 00:14:28;;;;;;;7.22;3.75;;;;;;;12.36;100.00;100355.13;5131328;28;20500;-73
2023/05/15 00:16:58;;;;;;;5.20;3.45;;;;;;;12.38;100.00;100355.91;5151616;28;20098;-73
2023/05/15 00:19:29;;;;;;;8.25;3.83;;;;;;;12.23;100.00;100341.75;5128935;28;20027;-73
2023/05/15 00:21:59;;;;;;;5.22;3.10;;;;;;;12.35;100.00;100340.34;5136028;28;20026;-73
2023/05/15 00:24:29;;;;;;;8.73;3.50;;;;;;;12.31;100.00;100339.63;5136434;28;20019;-73
2023/05/15 00:27:00;;;;;;;5.65;3.25;;;;;;;12.04;100.00;100345.25;5151891;28;20098;-73
2023/05/15 00:29:30;;;;;;;10.02;4.57;;;;;;;11.85;100.00;100337.41;5136019;28;20038;-73
2023/05/15 00:32:01;;;;;;;5.20;3.28;;;;;;;11.93;100.00;100344.91;5137677;28;20049;-73
2023/05/15 00:34:31;;;;;;;5.57;3.45;;;;;;;12.00;100.00;100339.34;5136900;28;20030;-73
2023/05/15 00:37:01;;;;;;;6.15;3.47;;;;;;;11.95;100.00;100336.06;5138466;28;20035;-74
2023/05/15 00:39:31;;;;;;;7.75;3.30;;;;;;;11.80;100.00;100341.13;5132913;28;20493;-72
2023/05/15 00:42:03;;;;;;;5.47;3.55;;;;;;;11.76;100.00;100340.41;5135920;28;20031;-73
2023/05/15 00:44:35;;;;;;;5.85;3.65;;;;;;;11.73;100.00;100340.56;5137920;28;20119;-73
2023/05/15 00:47:06;;;;;;;6.25;3.20;;;;;;;11.53;100.00;100344.91;5134476;28;20517;-73
2023/05/15 00:49:37;;;;;;;5.22;3.17;;;;;;;11.55;100.00;100332.59;5129986;28;20035;-73
2023/05/15 00:52:07;;;;;;;8.50;4.20;;;;;;;11.57;100.00;100336.03;5129456;28;20042;-72
2023/05/15 00:54:38;;;;;;;4.82;3.47;;;;;;;11.80;100.00;100331.50;5146312;28;20023;-75
2023/05/15 00:57:09;;;;;;;6.80;3.60;;;;;;;11.92;100.00;100324.88;5125404;28;20055;-72
2023/05/15 00:59:41;;;;;;;5.70;3.65;;;;;;;11.97;100.00;100328.13;5111483;28;20037;-73
2023/05/15 01:02:14;;;;;;;8.85;3.67;;;;;;;11.97;100.00;100320.28;5128727;28;20023;-73
2023/05/15 01:04:45;;;;;;;9.30;3.30;;;;;;;11.96;100.00;100322.03;5131535;28;20039;-74
2023/05/15 01:07:15;;;;;;;5.57;3.67;;;;;;;12.10;100.00;100324.88;5130976;28;20029;-73
2023/05/15 01:09:48;;;;;;;5.05;3.67;;;;;;;11.91;100.00;100318.78;5133142;28;20030;-74
2023/05/15 01:12:21;;;;;;;5.90;3.47;;;;;;;11.67;100.00;100324.25;5133027;28;20396;-73
2023/05/15 01:14:52;;;;;;;5.97;3.30;;;;;;;11.55;100.00;100320.38;5148783;28;20332;-73
2023/05/15 01:17:22;;;;;;;5.35;3.20;;;;;;;11.58;100.00;100320.28;5129721;28;20026;-73
2023/05/15 01:19:55;;;;;;;6.35;3.55;;;;;;;11.53;100.00;100321.34;5128761;28;20362;-73
2023/05/15 01:22:39;;;;;;;5.72;3.83;;;;;;;11.35;100.00;100317.78;5131978;28;20484;-73
2023/05/15 01:25:25;;;;;;;5.07;3.28;;;;;;;11.38;100.00;100320.25;5131998;28;20034;-72
2023/05/15 01:28:02;;;;;;;6.32;4.07;;;;;;;11.17;100.00;100318.56;5131551;28;20139;-73
2023/05/15 01:30:35;;;;;;;4.78;3.22;;;;;;;11.23;100.00;100320.91;5132407;28;20117;-73
2023/05/15 01:33:28;;;;;;;4.43;3.00;;;;;;;11.37;100.00;100318.56;5133374;28;20026;-73
2023/05/15 01:36:32;;;;;;;9.35;4.75;;;;;;;10.97;100.00;100324.66;5127275;28;20449;-73
2023/05/15 01:39:04;;;;;;;10.10;3.70;;;;;;;11.04;100.00;100326.97;5128336;28;20073;-73
2023/05/15 01:41:38;;;;;;;6.15;3.90;;;;;;;10.90;100.00;100323.22;5129978;28;20023;-73
2023/05/15 01:44:25;;;;;;;6.35;3.50;;;;;;;10.80;100.00;100327.09;5134238;28;20023;-73
2023/05/15 01:47:05;;;;;;;4.53;3.00;;;;;;;10.76;100.00;100325.53;5128339;28;20066;-72
2023/05/15 01:49:37;;;;;;;11.60;3.50;;;;;;;10.90;100.00;100320.59;5126659;28;20549;-73
2023/05/15 01:52:13;;;;;;;6.38;3.08;;;;;;;10.68;100.00;100319.78;5130495;28;20157;-73
2023/05/15 01:54:45;;;;;;;5.05;2.97;;;;;;;10.76;100.00;100321.19;5123073;28;20126;-73
2023/05/15 01:57:16;;;;;;;7.13;3.42;;;;;;;10.57;100.00;100319.34;5126522;28;20033;-73
2023/05/15 01:59:48;;;;;;;6.70;3.53;;;;;;;10.58;100.00;100314.06;5126965;28;20073;-74
2023/05/15 02:02:20;;;;;;;6.95;3.60;;;;;;;10.76;100.00;100320.31;5135942;28;20026;-73
2023/05/15 02:04:51;;;;;;;7.53;3.45;;;;;;;10.75;100.00;100305.53;5127183;28;20038;-72
2023/05/15 02:07:23;;;;;;;7.82;3.50;;;;;;;10.70;100.00;100299.66;5129021;28;20019;-73
2023/05/15 02:09:54;;;;;;;5.65;3.47;;;;;;;10.64;100.00;100299.88;5136259;28;20253;-72
2023/05/15 02:12:26;;;;;;;7.05;3.40;;;;;;;10.62;100.00;100304.31;5128687;28;20034;-72
2023/05/15 02:14:57;;;;;;;19.25;8.98;;;;;;;10.50;100.00;100307.44;5125252;28;20085;-73
2023/05/15 02:17:28;;;;;;;10.70;5.13;;;;;;;10.46;100.00;100306.72;5129000;28;20027;-73
2023/05/15 02:19:58;;;;;;;4.90;3.65;;;;;;;10.12;100.00;100300.22;5129029;28;20031;-73
2023/05/15 02:22:28;;;;;;;7.00;3.78;;;;;;;10.06;100.00;100295.25;5129009;28;20033;-73
2023/05/15 02:24:59;;;;;;;8.70;4.05;;;;;;;10.15;100.00;100297.53;5130717;28;20485;-75
2023/05/15 02:27:46;;;;;;;6.30;3.90;;;;;;;10.08;100.00;100294.28;5130074;28;20026;-74
2023/05/15 02:30:30;;;;;;;5.72;3.70;;;;;;;10.34;100.00;100296.72;5135030;28;20030;-73
2023/05/15 02:33:12;;;;;;;4.40;3.67;;;;;;;10.32;100.00;100300.34;5133637;28;20039;-73
2023/05/15 02:35:51;;;;;;;11.38;4.28;;;;;;;10.15;100.00;100290.53;5130040;28;20445;-73
2023/05/15 02:38:49;;;;;;;5.15;3.65;;;;;;;9.92;100.00;100292.25;5129860;28;20385;-72
2023/05/15 02:41:21;;;;;;;9.65;4.00;;;;;;;9.76;100.00;100285.91;5123444;28;20042;-73
2023/05/15 02:43:54;;;;;;;7.18;3.83;;;;;;;9.57;100.00;100288.34;5130306;28;20128;-75
2023/05/15 02:46:26;;;;;;;6.47;3.92;;;;;;;9.73;100.00;100280.81;5129574;28;20307;-72
2023/05/15 02:48:57;;;;;;;8.02;3.60;;;;;;;9.77;100.00;100285.88;5127766;28;20058;-74
2023/05/15 02:51:28;;;;;;;5.13;3.80;;;;;;;9.65;100.00;100290.69;5127552;28;20031;-72
2023/05/15 02:54:00;;;;;;;6.60;3.47;;;;;;;9.53;100.00;100293.72;5128274;28;20042;-73
2023/05/15 02:56:30;;;;;;;4.13;3.17;;;;;;;9.64;100.00;100289.00;5125033;28;20377;-73
2023/05/15 02:59:01;;;;;;;5.97;3.90;;;;;;;9.98;100.00;100279.00;5134701;28;20085;-73
2023/05/15 03:01:31;;;;;;;7.07;3.42;;;;;;;9.99;100.00;100289.38;5126926;28;20398;-73
2023/05/15 03:04:02;;;;;;;6.00;3.70;;;;;;;9.86;100.00;100282.91;5131988;28;20027;-73
2023/05/15 03:06:32;;;;;;;7.70;4.32;;;;;;;9.70;100.00;100280.94;5128295;28;20042;-73
2023/05/15 03:09:02;;;;;;;7.05;4.25;;;;;;;9.90;100.00;100278.44;5129518;28;20065;-73
2023/05/15 03:11:33;;;;;;;5.82;4.00;;;;;;;9.77;100.00;100279.78;5123936;28;20024;-73
2023/05/15 03:14:03;;;;;;;5.45;3.78;;;;;;;9.95;100.00;100276.47;5127136;28;20428;-73
2023/05/15 03:16:35;;;;;;;6.03;3.75;;;;;;;9.80;100.00;100269.25;5131300;28;20063;-73
2023/05/15 03:19:06;;;;;;;5.93;3.60;;;;;;;9.44;100.00;100278.41;5132165;28;20046;-75
2023/05/15 03:21:36;;;;;;;5.38;3.47;;;;;;;9.53;100.00;100273.72;5132360;28;20027;-72
2023/05/15 03:24:06;;;;;;;5.32;3.40;;;;;;;9.71;100.00;100267.84;5134034;28;20030;-73
2023/05/15 03:26:39;;;;;;;6.57;3.38;;;;;;;9.51;100.00;100264.25;5145512;28;20026;-73
2023/05/15 03:29:10;;;;;;;5.15;3.55;;;;;;;9.57;100.00;100271.84;5132747;28;20484;-74
2023/05/15 03:31:40;;;;;;;6.88;4.10;;;;;;;9.58;100.00;100270.94;5130594;28;20505;-73
2023/05/15 03:34:10;;;;;;;9.25;4.22;;;;;;;9.58;100.00;100268.31;5132163;28;20034;-73
2023/05/15 03:36:41;;;;;;;8.68;3.55;;;;;;;9.49;100.00;100268.66;5133450;28;20461;-73
2023/05/15 03:39:11;;;;;;;8.57;3.83;;;;;;;9.74;100.00;100267.72;5132394;28;20018;-75
2023/05/15 03:41:41;;;;;;;7.13;3.63;;;;;;;9.66;100.00;100264.53;5127093;28;20340;-74
2023/05/15 03:44:12;;;;;;;5.25;3.75;;;;;;;9.40;100.00;100268.97;5134420;28;20037;-72
2023/05/15 03:46:42;;;;;;;7.85;4.00;;;;;;;9.43;100.00;100263.66;5131323;28;20035;-74
2023/05/15 03:49:12;;;;;;;6.40;3.85;;;;;;;9.68;100.00;100261.88;5143597;28;20062;-72
2023/05/15 03:51:42;;;;;;;5.20;3.80;;;;;;;9.86;100.00;100245.53;5131819;28;20448;-73
2023/05/15 03:54:13;;;;;;;6.82;4.15;;;;;;;9.96;100.00;100246.88;5132655;28;20207;-73
2023/05/15 03:56:43;;;;;;;9.40;3.88;;;;;;;9.89;100.00;100245.41;5127713;28;20039;-74
2023/05/15 03:59:13;;;;;;;8.32;3.95;;;;;;;9.88;100.00;100247.19;5147605;28;20113;-75
2023/05/15 04:01:44;;;;;;;7.63;4.45;;;;;;;9.72;100.00;100242.56;5132247;28;20448;-73
2023/05/15 04:04:14;;;;;;;7.70;4.05;;;;;;;9.88;100.00;100244.56;5133568;28;20037;-74
2023/05/15 04:06:44;;;;;;;12.20;4.40;;;;;;;9.86;100.00;100256.78;5130435;28;20023;-73
2023/05/15 04:09:15;;;;;;;5.47;3.67;;;;;;;10.07;100.00;100244.72;5130800;28;20503;-73
2023/05/15 04:11:45;;;;;;;6.35;3.60;;;;;;;9.78;100.00;100251.03;5132137;28;20022;-74
2023/05/15 04:14:15;;;;;;;7.88;4.68;;;;;;;9.68;100.00;100247.06;5131552;28;20062;-74
2023/05/15 04:16:46;;;;;;;7.18;3.38;;;;;;;9.49;100.00;100250.41;5127804;28;20027;-73
2023/05/15 04:19:16;;;;;;;6.25;3.95;;;;;;;9.52;100.00;100252.91;5131387;28;20022;-74
2023/05/15 04:21:46;;;;;;;6.85;3.85;;;;;;;9.63;100.00;100248.16;5131504;28;20106;-73
2023/05/15 04:24:17;;;;;;;5.95;4.28;;;;;;;9.64;100.00;100265.50;5131945;28;20400;-75
2023/05/15 04:26:47;;;;;;;6.97;4.20;;;;;;;9.69;100.00;100258.34;5128918;28;20035;-74
2023/05/15 04:29:17;;;;;;;7.13;4.50;;;;;;;10.06;100.00;100250.88;5130068;28;20043;-73
2023/05/15 04:31:47;;;;;;;6.90;3.85;;;;;;;10.32;100.00;100250.72;5130507;28;20037;-72
2023/05/15 04:34:18;;;;;;;6.35;3.92;;;;;;;10.52;100.00;100243.75;5135324;28;20089;-73
2023/05/15 04:36:48;;;;;;;6.60;4.10;;;;;;;10.80;100.00;100246.94;5152533;28;20031;-72
2023/05/15 04:39:18;;;;;;;7.28;4.10;;;;;;;11.73;100.00;100246.31;5133034;28;20496;-76
2023/05/15 04:41:49;;;;;;;5.28;3.58;;;;;;;11.60;94.24;100239.91;5130514;28;20035;-72
2023/05/15 04:44:19;;;;;;;4.53;3.47;;;;;;;11.62;94.55;100232.00;5132503;28;20027;-73
2023/05/15 04:46:50;;;;;;;8.63;3.20;;;;;;;11.58;92.80;100236.53;5130277;28;20035;-72
2023/05/15 04:49:20;;;;;;;9.07;3.80;;;;;;;11.30;95.57;100243.84;5132154;28;20050;-74
2023/05/15 04:51:50;;;;;;;5.65;4.00;;;;;;;10.76;98.57;100253.22;5128230;28;20512;-73
2023/05/15 04:54:21;;;;;;;6.97;4.22;;;;;;;10.39;100.00;100255.63;5131795;28;20034;-73
2023/05/15 04:56:51;;;;;;;6.57;4.30;;;;;;;10.13;100.00;100255.78;5126792;28;20031;-73
2023/05/15 04:59:21;;;;;;;6.95;4.70;;;;;;;10.26;100.00;100258.75;5130991;28;20045;-73
2023/05/15 05:01:52;;;;;;;7.80;4.18;;;;;;;10.54;100.00;100256.78;5126837;28;20038;-73
2023/05/15 05:04:23;;;;;;;7.28;4.13;;;;;;;10.56;100.00;100252.31;5120413;28;20082;-73
2023/05/15 05:06:53;;;;;;;5.57;4.10;;;;;;;10.62;100.00;100263.38;5129207;28;20047;-73
2023/05/15 05:09:24;;;;;;;7.70;4.70;;;;;;;10.76;100.00;100255.84;5122856;28;20124;-73
2023/05/15 05:11:54;;;;;;;6.80;4.75;;;;;;;10.54;100.00;100256.78;5122508;28;20042;-72
2023/05/15 05:14:25;;;;;;;8.40;4.65;;;;;;;10.54;100.00;100254.16;5134735;28;20477;-72
2023/05/15 05:16:55;;;;;;;6.03;4.20;;;;;;;10.55;100.00;100250.63;5126228;28;20055;-71
2023/05/15 05:19:27;;;;;;;7.00;4.70;;;;;;;10.76;100.00;100253.22;5131222;28;20089;-73
2023/05/15 05:22:00;;;;;;;6.20;4.10;;;;;;;10.81;100.00;100255.63;5129455;28;20035;-73
2023/05/15 05:24:31;;;;;;;6.72;4.53;;;;;;;10.65;100.00;100251.97;5129224;28;20045;-73
2023/05/15 05:27:01;;;;;;;8.13;4.53;;;;;;;11.07;100.00;100246.63;5132188;28;20037;-73
2023/05/15 05:29:32;;;;;;;9.02;4.30;;;;;;;11.04;100.00;100241.53;5128701;28;20046;-73
2023/05/15 05:32:02;;;;;;;7.30;4.88;;;;;;;10.89;100.00;100248.31;5132543;28;20335;-73
2023/05/15 05:34:33;;;;;;;8.15;4.53;;;;;;;11.02;100.00;100244.28;5131802;28;20026;-73
2023/05/15 05:37:03;;;;;;;9.65;4.38;;;;;;;11.30;100.00;100237.78;5133075;28;20031;-73
2023/05/15 05:39:34;;;;;;;8.45;4.65;;;;;;;11.50;100.00;100237.75;5133665;28;20042;-73
2023/05/15 05:42:04;;;;;;;8.07;5.20;;;;;;;11.41;100.00;100246.03;5133225;28;20026;-73
2023/05/15 05:44:34;;;;;;;9.00;5.00;;;;;;;11.49;100.00;100239.53;5128354;28;20051;-73
2023/05/15 05:47:05;;;;;;;8.63;5.35;;;;;;;11.41;100.00;100239.00;5129626;28;20023;-73
2023/05/15 05:49:35;;;;;;;7.88;4.90;;;;;;;11.68;100.00;100237.81;5128563;28;20055;-75
2023/05/15 05:52:06;;;;;;;7.93;5.25;;;;;;;11.94;100.00;100240.06;5130521;28;20551;-74
2023/05/15 05:54:37;;;;;;;11.02;5.85;;;;;;;12.12;100.00;100239.22;5129474;28;20521;-73
2023/05/15 05:57:08;;;;;;;8.73;5.70;;;;;;;12.08;100.00;100234.19;5127991;28;20046;-73
2023/05/15 05:59:39;;;;;;;9.93;6.00;;;;;;;12.12;100.00;100233.97;5125431;28;20027;-72
2023/05/15 06:02:10;;;;;;;9.35;5.70;;;;;;;11.89;100.00;100230.72;5129101;28;20023;-74
2023/05/15 06:04:40;;;;;;;8.32;5.32;;;;;;;12.37;100.00;100224.03;5122381;28;20031;-73
2023/05/15 06:07:11;;;;;;;7.82;5.32;;;;;;;12.46;100.00;100226.19;5127036;28;20022;-73
2023/05/15 06:09:41;;;;;;;12.63;5.80;;;;;;;12.81;100.00;100222.69;5124320;28;20031;-74
2023/05/15 06:12:11;;;;;;;10.45;6.30;;;;;;;12.96;100.00;100215.88;5127737;28;20109;-74
2023/05/15 06:14:41;;;;;;;10.52;6.53;;;;;;;12.97;100.00;100223.63;5122177;28;20035;-74
2023/05/15 06:17:12;;;;;;;13.13;6.50;;;;;;;13.18;100.00;100217.28;5128107;28;20023;-73
2023/05/15 06:19:42;;;;;;;14.90;5.95;;;;;;;13.43;100.00;100212.47;5124769;28;20445;-74
2023/05/15 06:22:12;;;;;;;9.65;6.30;;;;;;;13.38;100.00;100211.88;5129066;28;20030;-74
2023/05/15 06:24:43;;;;;;;11.40;6.35;;;;;;;13.63;100.00;100207.88;5122280;28;20089;-74
2023/05/15 06:27:13;;;;;;;8.82;5.70;;;;;;;13.69;100.00;100206.66;5125651;28;20015;-73
2023/05/15 06:29:44;;;;;;;11.63;6.20;;;;;;;13.73;100.00;100208.22;5124295;28;20031;-74
2023/05/15 06:32:14;;;;;;;8.27;5.72;;;;;;;13.87;100.00;100214.41;5125084;28;20037;-74
2023/05/15 06:34:44;;;;;;;9.95;6.00;;;;;;;14.29;100.00;100213.84;5123370;28;20429;-74
2023/05/15 06:37:15;;;;;;;9.30;5.28;;;;;;;14.49;100.00;100211.78;5126113;28;20330;-74
2023/05/15 06:39:45;;;;;;;10.13;5.70;;;;;;;14.82;96.98;100210.66;5129088;28;20035;-74
2023/05/15 06:42:15;;;;;;;7.65;5.35;;;;;;;14.95;92.41;100211.66;5126028;28;20026;-74
2023/05/15 06:44:46;;;;;;;10.93;5.88;;;;;;;14.91;90.41;100215.41;5124485;28;20038;-74
2023/05/15 06:47:16;;;;;;;10.85;4.93;;;;;;;15.04;90.84;100216.34;5127512;28;20454;-74
2023/05/15 06:49:47;;;;;;;9.93;5.18;;;;;;;15.47;90.75;100204.97;5125317;28;20089;-74
2023/05/15 06:52:17;;;;;;;8.70;5.25;;;;;;;15.75;86.82;100202.34;5130972;28;20031;-74
2023/05/15 06:54:47;;;;;;;8.32;4.75;;;;;;;15.73;84.23;100204.19;5133738;28;20113;-75
2023/05/15 06:57:18;;;;;;;8.75;4.55;;;;;;;15.84;83.18;100209.66;5126772;28;20031;-74
2023/05/15 06:59:49;;;;;;;8.07;4.80;;;;;;;16.03;81.60;100207.53;5128636;28;20034;-72
2023/05/15 07:02:19;;;;;;;9.82;4.63;;;;;;;16.09;80.63;100209.81;5131672;28;20023;-74
2023/05/15 07:04:50;;;;;;;12.65;4.70;;;;;;;16.41;81.03;100205.94;5122420;28;20074;-74
2023/05/15 07:07:25;;;;;;;11.73;4.85;;;;;;;16.55;81.51;100205.91;5130865;28;20026;-73
2023/05/15 07:10:04;;;;;;;8.50;4.73;;;;;;;16.83;79.56;100201.31;5129161;28;20027;-73
2023/05/15 07:12:35;;;;;;;8.95;4.30;;;;;;;16.91;77.75;100196.38;5128909;28;20083;-74
2023/05/15 07:15:05;;;;;;;5.65;3.92;;;;;;;17.34;77.50;100197.81;5130483;28;20031;-73
2023/05/15 07:17:36;;;;;;;6.38;3.80;;;;;;;17.59;75.28;100196.94;5127413;28;20035;-74
2023/05/15 07:20:06;;;;;;;6.55;4.22;;;;;;;17.03;77.57;100206.13;5131615;28;20090;-74
2023/05/15 07:22:37;;;;;;;8.50;4.20;;;;;;;17.10;77.38;100207.38;5127596;28;20050;-74
2023/05/15 07:25:08;;;;;;;7.45;4.78;;;;;;;17.29;77.95;100202.53;5125755;28;20034;-74
2023/05/15 07:27:38;;;;;;;7.40;4.28;;;;;;;17.36;75.79;100197.72;5126473;28;20050;-75
2023/05/15 07:30:09;;;;;;;7.22;4.35;;;;;;;17.66;75.30;100200.88;5128450;28;20026;-74
2023/05/15 07:32:40;;;;;;;7.18;3.67;;;;;;;17.65;78.23;100185.97;5144248;28;20031;-74
2023/05/15 07:35:10;;;;;;;7.50;3.95;;;;;;;17.82;76.32;100185.63;5135019;28;20055;-74
2023/05/15 07:37:40;;;;;;;6.38;4.00;;;;;;;18.15;72.97;100188.50;5128355;28;20122;-74
2023/05/15 07:40:11;;;;;;;9.38;3.60;;;;;;;18.05;74.88;100182.16;5134243;28;20604;-74
2023/05/15 07:42:43;;;;;;;6.00;3.53;;;;;;;18.28;72.94;100182.22;5128597;28;20494;-74
2023/05/15 07:45:13;;;;;;;5.95;3.60;;;;;;;18.94;72.73;100183.31;5131745;28;20023;-74
2023/05/15 07:47:45;;;;;;;6.82;3.40;;;;;;;20.61;65.88;100178.69;5126226;28;20382;-74
2023/05/15 07:50:16;;;;;;;7.53;3.80;;;;;;;20.59;66.75;100175.31;5126326;28;20019;-75
2023/05/15 07:52:47;;;;;;;7.95;3.50;;;;;;;20.37;67.19;100172.75;5125337;28;20027;-74
2023/05/15 07:55:17;;;;;;;5.00;3.08;;;;;;;21.27;65.15;100168.53;5127576;28;20098;-75
2023/05/15 07:57:47;;;;;;;6.53;3.70;;;;;;;21.44;64.34;100167.09;5126896;28;20042;-75
2023/05/15 08:00:18;;;;;;;6.55;3.20;;;;;;;21.21;62.44;100170.91;5130443;28;20699;-73
2023/05/15 08:02:49;;;;;;;5.32;3.22;;;;;;;21.64;63.49;100163.59;5125346;28;20038;-74
2023/05/15 08:05:19;;;;;;;5.13;3.15;;;;;;;23.17;60.40;100155.66;5143057;28;20436;-75
2023/05/15 08:07:50;;;;;;;6.07;3.30;;;;;;;23.50;58.19;100152.47;5128958;28;20429;-75
2023/05/15 08:10:20;;;;;;;5.22;2.63;;;;;;;24.73;54.97;100148.22;5128909;28;20054;-73
2023/05/15 08:12:51;;;;;;;5.03;2.75;;;;;;;24.70;54.39;100149.38;5127940;28;20211;-73
2023/05/15 08:15:22;;;;;;;4.88;2.88;;;;;;;24.90;55.62;100135.66;5129258;28;20038;-74
2023/05/15 08:17:52;;;;;;;5.82;2.65;;;;;;;25.34;55.30;100139.19;5125990;28;20057;-73
2023/05/15 08:20:22;;;;;;;4.93;2.77;;;;;;;24.30;56.12;100148.97;5129786;28;20033;-74
2023/05/15 08:22:52;;;;;;;5.30;2.90;;;;;;;23.97;57.49;100138.06;5139488;28;20375;-73
2023/05/15 08:25:23;;;;;;;7.40;3.43;;;;;;;23.26;58.67;100144.97;5128088;28;20274;-73
2023/05/15 08:27:53;;;;;;;7.63;3.17;;;;;;;22.75;60.76;100141.81;5124938;28;20344;-73
2023/05/15 08:30:23;;;;;;;6.70;3.40;;;;;;;22.71;62.09;100145.72;5126583;28;20583;-73
2023/05/15 08:32:54;;;;;;;6.65;3.28;;;;;;;23.69;59.44;100137.19;5128691;28;20211;-73
2023/05/15 08:35:24;;;;;;;6.57;3.08;;;;;;;23.55;58.59;100128.84;5143230;28;20111;-73
2023/05/15 08:37:54;;;;;;;7.05;3.20;;;;;;;22.73;61.36;100128.75;5141148;28;20050;-73
2023/05/15 08:40:25;;;;;;;6.10;3.03;;;;;;;23.09;59.81;100116.34;5143733;28;20252;-73
2023/05/15 08:43:02;;;;;;;11.38;3.10;;;;;;;23.96;61.43;100117.69;5128828;28;20031;-72
2023/05/15 08:45:33;;;;;;;6.75;2.90;;;;;;;25.32;57.09;100109.06;5125025;28;20039;-73
2023/05/15 08:48:10;;;;;;;4.50;2.70;;;;;;;27.65;52.18;100103.78;5128999;28;20031;-74
2023/05/15 08:50:42;;;;;;;5.15;3.13;;;;;;;26.75;52.36;100103.28;5127459;28;20045;-73
2023/05/15 08:53:13;;;;;;;7.65;2.50;;;;;;;27.87;52.43;100095.81;5128768;28;20027;-74
2023/05/15 08:55:44;;;;;;;4.53;2.70;;;;;;;27.92;51.01;100098.81;5126939;28;20468;-73
2023/05/15 08:58:15;;;;;;;6.03;2.40;;;;;;;27.51;51.28;100104.50;5125765;28;20372;-73
2023/05/15 09:00:47;;;;;;;4.70;2.40;;;;;;;28.44;51.06;100088.28;5115472;28;20500;-74
2023/05/15 09:03:21;;;;;;;5.45;2.33;;;;;;;29.26;48.96;100089.03;5114557;28;20108;-74
2023/05/15 09:05:52;;;;;;;3.90;2.25;;;;;;;29.10;48.01;100086.50;5127679;28;20122;-74
2023/05/15 09:08:23;;;;;;;4.60;2.35;;;;;;;28.86;48.77;100086.72;5128724;28;20110;-74
2023/05/15 09:10:55;;;;;;;4.47;2.38;;;;;;;28.22;49.49;100084.53;5128193;28;20066;-74
2023/05/15 09:13:26;;;;;;;5.13;2.50;;;;;;;28.53;48.79;100082.63;5129912;28;20042;-74
2023/05/15 09:15:56;;;;;;;4.15;2.50;;;;;;;28.86;48.81;100078.66;5126820;28;20039;-73
2023/05/15 09:18:26;;;;;;;5.47;2.27;;;;;;;29.93;46.73;100067.13;5147757;28;20416;-73
2023/05/15 09:21:27;;;;;;;4.47;2.28;;;;;;;29.21;47.81;100073.41;5128284;28;20281;-73
2023/05/15 09:24:19;;;;;;;5.63;2.00;;;;;;;29.55;46.95;100062.13;5131881;28;20047;-74
2023/05/15 09:27:05;;;;;;;5.38;2.20;;;;;;;28.88;46.44;100063.16;5125177;28;20035;-73
2023/05/15 09:29:37;;;;;;;4.15;2.40;;;;;;;28.70;47.02;100073.41;5140739;28;20354;-73
2023/05/15 09:32:09;;;;;;;4.13;2.00;;;;;;;28.77;46.58;100068.97;5127922;28;20461;-74
2023/05/15 09:34:41;;;;;;;3.70;2.30;;;;;;;28.56;46.54;100066.13;5127064;28;20117;-73
2023/05/15 09:37:28;;;;;;;3.15;1.80;;;;;;;28.78;46.33;100059.88;5121956;28;20034;-72
2023/05/15 09:40:09;;;;;;;7.13;2.33;;;;;;;29.37;45.45;100056.25;5126463;28;20446;-73
2023/05/15 09:42:40;;;;;;;5.53;2.35;;;;;;;28.60;45.91;100059.38;5125100;28;20031;-73
2023/05/15 09:45:17;;;;;;;4.50;2.17;;;;;;;28.40;45.28;100060.88;5129297;28;20086;-72
2023/05/15 09:47:47;;;;;;;2.83;1.80;;;;;;;28.42;47.56;100053.47;5120180;28;20275;-73
2023/05/15 09:50:23;;;;;;;4.97;1.85;;;;;;;28.16;48.16;100044.06;5128379;28;20034;-74
2023/05/15 09:52:57;;;;;;;3.85;2.25;;;;;;;28.04;46.60;100049.03;5135277;28;20027;-73
2023/05/15 09:55:31;;;;;;;2.78;1.77;;;;;;;27.17;49.82;100059.16;5127016;28;20109;-73
2023/05/15 09:58:10;;;;;;;3.67;2.00;;;;;;;27.14;49.40;100054.09;5126089;28;20031;-73
2023/05/15 10:00:42;;;;;;;4.68;2.28;;;;;;;26.79;48.24;100049.13;5122472;28;20051;-72
2023/05/15 10:03:14;;;;;;;4.53;2.20;;;;;;;26.75;47.83;100063.06;5126121;28;20514;-73
2023/05/15 10:05:44;;;;;;;4.40;2.15;;;;;;;27.24;49.39;100045.88;5125554;28;20041;-73
2023/05/15 10:08:26;;;;;;;3.65;2.00;;;;;;;26.41;47.23;100045.44;5131310;28;20019;-73
2023/05/15 10:10:59;;;;;;;3.83;1.77;;;;;;;25.44;50.11;100046.19;5123907;28;20036;-73
2023/05/15 10:13:33;;;;;;;5.30;2.30;;;;;;;24.76;51.13;100039.13;5125635;28;20035;-72
2023/05/15 10:16:04;;;;;;;6.38;2.30;;;;;;;24.51;52.57;100039.91;5126574;28;20019;-73
2023/05/15 10:18:38;;;;;;;5.65;2.10;;;;;;;24.01;53.07;100046.81;5122741;28;20024;-73
2023/05/15 10:21:09;;;;;;;4.90;2.60;;;;;;;24.08;55.20;100041.72;5142294;28;20081;-73
2023/05/15 10:23:41;;;;;;;16.85;3.53;;;;;;;24.00;53.50;100045.16;5124070;28;20255;-73
2023/05/15 10:26:32;;;;;;;3.40;2.30;;;;;;;23.73;54.21;100037.13;5128025;28;20165;-73
2023/05/15 10:29:06;;;;;;;3.30;2.00;;;;;;;23.53;55.24;100042.75;5125433;28;20027;-73
2023/05/15 10:31:36;;;;;;;3.95;2.20;;;;;;;23.28;56.08;100046.09;5123964;28;20158;-73
2023/05/15 10:34:07;;;;;;;6.50;2.20;;;;;;;23.10;56.25;100051.38;5127951;28;20094;-72
2023/05/15 10:36:38;;;;;;;4.97;2.53;;;;;;;22.77;55.62;100045.69;5132666;28;20034;-74
2023/05/15 10:39:08;;;;;;;4.63;2.33;;;;;;;22.41;56.36;100053.63;5126233;28;20022;-73
2023/05/15 10:41:39;;;;;;;6.78;2.40;;;;;;;22.19;56.86;100048.53;5124599;28;20102;-73
2023/05/15 10:44:10;;;;;;;3.45;2.08;;;;;;;22.18;57.95;100042.38;5131229;28;20097;-73
2023/05/15 10:46:41;;;;;;;5.00;2.20;;;;;;;22.30;57.61;100035.94;5124225;28;20031;-73
2023/05/15 10:49:11;;;;;;;3.95;2.28;;;;;;;22.44;57.81;100040.84;5140741;28;20485;-73
2023/05/15 10:51:41;;;;;;;6.18;2.72;;;;;;;22.28;57.21;100037.88;5122922;28;20034;-72
2023/05/15 10:54:13;;;;;;;3.97;2.22;;;;;;;22.47;56.75;100035.25;5126781;28;20155;-73
2023/05/15 10:56:43;;;;;;;4.53;2.22;;;;;;;22.50;56.30;100028.78;5117529;28;20078;-73
2023/05/15 10:59:13;;;;;;;3.47;2.13;;;;;;;22.54;56.15;100022.19;5124865;28;20066;-73
2023/05/15 11:01:44;;;;;;;3.95;2.10;;;;;;;22.77;56.74;100029.72;5137051;28;20027;-72
2023/05/15 11:04:17;;;;;;;4.22;2.28;;;;;;;22.86;56.13;100015.53;5139157;28;20066;-74
2023/05/15 11:06:49;;;;;;;4.88;2.10;;;;;;;22.96;55.25;100016.31;5119445;28;20038;-73
2023/05/15 11:09:25;;;;;;;7.90;2.08;;;;;;;22.79;55.59;100015.25;5122804;28;20485;-73
2023/05/15 11:12:06;;;;;;;3.85;2.42;;;;;;;22.52;57.93;100009.03;5130426;28;20043;-73
2023/05/15 11:14:39;;;;;;;3.72;2.00;;;;;;;22.42;57.03;100018.84;5141240;28;20038;-72
2023/05/15 11:17:13;;;;;;;11.73;2.90;;;;;;;21.87;65.71;100047.97;5124395;28;20441;-71
2023/05/15 11:19:50;;;;;;;9.60;3.00;;;;;;;21.46;79.54;100032.19;5125470;28;20031;-71
2023/05/15 11:22:25;;;;;;;4.45;2.60;;;;;;;20.38;85.93;100023.09;5121168;28;20054;-73
2023/05/15 11:25:08;;;;;;;5.25;2.95;;;;;;;20.19;88.04;100020.31;5119580;28;20035;-73
2023/05/15 11:27:40;;;;;;;4.55;2.88;;;;;;;20.10;90.41;100018.41;5120453;28;20106;-72
2023/05/15 11:30:23;;;;;;;4.05;2.70;;;;;;;20.02;84.19;100014.72;5124081;28;20054;-72
2023/05/15 11:32:57;;;;;;;9.55;2.88;;;;;;;20.20;78.08;100011.38;5127139;28;20041;-73
2023/05/15 11:35:34;;;;;;;4.80;2.85;;;;;;;20.37;87.55;100012.59;5125461;28;20026;-72
2023/05/15 11:38:15;;;;;;;4.10;2.47;;;;;;;20.54;86.47;100007.56;5121969;28;20118;-73
2023/05/15 11:40:57;;;;;;;6.30;3.10;;;;;;;20.22;93.89;100013.88;5125127;28;20402;-73
2023/05/15 11:43:34;;;;;;;5.32;3.28;;;;;;;20.36;94.05;99997.66;5139512;28;20133;-74
2023/05/15 11:46:12;;;;;;;6.45;2.80;;;;;;;20.58;85.75;99998.34;5128315;28;20093;-73